createdAt,value
2023-03-21T00:04:28.376Z,9.06
2023-03-21T00:09:34.281Z,9.14
2023-03-21T00:14:43.427Z,9.15
2023-03-21T00:19:46.344Z,9.15
2023-03-21T00:24:48.337Z,9.16
2023-03-21T00:29:50.323Z,9.16
2023-03-21T00:35:21.444Z,9.13
2023-03-21T00:40:25.699Z,9.08
2023-03-21T00:45:31.923Z,9.05
2023-03-21T00:50:39.264Z,9.01
2023-03-21T00:55:42.434Z,9.01
2023-03-21T01:00:47.071Z,9.01
2023-03-21T01:06:04.505Z,8.98
2023-03-21T01:11:10.417Z,8.96
2023-03-21T01:16:12.471Z,9.01
2023-03-21T01:21:14.626Z,9.13
2023-03-21T01:26:16.446Z,9.21
2023-03-21T01:31:19.397Z,9.10
2023-03-21T01:36:25.460Z,9.13
2023-03-21T01:41:43.292Z,9.10
2023-03-21T01:47:13.411Z,9.08
2023-03-21T01:52:36.438Z,9.00
2023-03-21T01:57:58.444Z,8.98
2023-03-21T02:03:16.891Z,8.90
2023-03-21T02:08:39.231Z,8.84
2023-03-21T02:13:43.778Z,8.79
2023-03-21T02:19:17.708Z,8.74
2023-03-21T02:25:01.251Z,8.70
2023-03-21T02:30:50.967Z,8.71
2023-03-21T02:36:14.501Z,8.67
2023-03-21T02:41:38.269Z,8.59
2023-03-21T02:47:06.006Z,8.55
2023-03-21T02:52:28.323Z,8.54
2023-03-21T02:57:42.230Z,8.57
2023-03-21T03:02:45.560Z,8.57
2023-03-21T03:08:11.506Z,8.52
2023-03-21T03:13:43.935Z,8.48
2023-03-21T03:18:55.525Z,8.48
2023-03-21T03:24:10.449Z,8.50
2023-03-21T03:29:18.387Z,8.50
2023-03-21T03:34:24.426Z,8.44
2023-03-21T03:39:38.130Z,8.40
2023-03-21T03:44:40.446Z,8.38
2023-03-21T03:49:48.531Z,8.38
2023-03-21T03:54:52.217Z,8.37
2023-03-21T03:59:55.450Z,8.33
2023-03-21T04:05:01.236Z,8.27
2023-03-21T04:10:05.025Z,8.24
2023-03-21T04:15:12.847Z,8.23
2023-03-21T04:20:26.726Z,8.23
2023-03-21T04:25:44.584Z,8.19
2023-03-21T04:31:01.205Z,8.16
2023-03-21T04:36:24.765Z,8.17
2023-03-21T04:41:28.775Z,8.17
2023-03-21T04:46:31.981Z,8.14
2023-03-21T04:51:34.656Z,8.13
2023-03-21T04:56:36.673Z,8.14
2023-03-21T05:01:38.443Z,8.13
2023-03-21T05:06:42.607Z,8.11
2023-03-21T05:11:44.530Z,8.06
2023-03-21T05:16:53.307Z,8.03
2023-03-21T05:21:55.400Z,8.07
2023-03-21T05:27:02.457Z,8.10
2023-03-21T05:32:06.118Z,8.13
2023-03-21T05:37:08.103Z,8.14
2023-03-21T05:42:18.537Z,8.18
2023-03-21T05:47:20.876Z,8.24
2023-03-21T05:52:23.126Z,8.30
2023-03-21T05:57:27.917Z,8.39
2023-03-21T06:02:39.928Z,8.55
2023-03-21T06:07:42.950Z,8.77
2023-03-21T06:12:45.753Z,8.94
2023-03-21T06:18:00.789Z,8.96
2023-03-21T06:23:03.375Z,8.97
2023-03-21T06:28:05.646Z,8.98
2023-03-21T06:33:08.798Z,8.99
2023-03-21T06:38:11.877Z,9.08
2023-03-21T06:43:16.151Z,9.14
2023-03-21T06:48:18.150Z,9.18
2023-03-21T06:53:27.312Z,9.10
2023-03-21T06:58:47.546Z,9.00
2023-03-21T07:03:59.585Z,9.02
2023-03-21T07:09:03.150Z,9.10
2023-03-21T07:14:06.927Z,9.19
2023-03-21T07:19:09.085Z,9.29
2023-03-21T07:24:10.859Z,9.42
2023-03-21T07:29:12.596Z,9.51
2023-03-21T07:34:16.725Z,9.53
2023-03-21T07:39:20.522Z,9.60
2023-03-21T07:44:23.291Z,9.70
2023-03-21T07:49:29.206Z,9.78
2023-03-21T07:54:32.054Z,9.85
2023-03-21T07:59:34.632Z,9.92
2023-03-21T08:04:36.471Z,10.06
2023-03-21T08:09:38.320Z,10.18
2023-03-21T08:14:40.087Z,10.22
2023-03-21T08:19:41.866Z,10.29
2023-03-21T08:24:43.582Z,10.40
2023-03-21T08:29:45.389Z,10.47
2023-03-21T08:34:47.045Z,10.54
2023-03-21T08:39:48.776Z,10.57
2023-03-21T08:44:50.979Z,10.65
2023-03-21T08:49:52.767Z,10.73
2023-03-21T08:54:55.254Z,10.79
2023-03-21T08:59:57.071Z,10.83
2023-03-21T09:04:59.166Z,10.87
2023-03-21T09:10:19.690Z,10.91
2023-03-21T09:15:25.526Z,11.01
2023-03-21T09:20:31.224Z,11.19
2023-03-21T09:25:33.577Z,11.48
2023-03-21T09:30:36.804Z,11.64
2023-03-21T09:35:39.279Z,11.62
2023-03-21T09:41:08.921Z,11.48
2023-03-21T09:46:24.154Z,11.41
2023-03-21T09:51:31.306Z,11.35
2023-03-21T09:56:34.646Z,11.35
2023-03-21T10:01:42.034Z,11.31
2023-03-21T10:06:46.720Z,11.22
2023-03-21T10:11:57.528Z,11.19
2023-03-21T10:17:25.859Z,11.24
2023-03-21T10:22:27.748Z,11.33
2023-03-21T10:27:29.876Z,11.41
2023-03-21T10:32:31.942Z,11.52
2023-03-21T10:37:36.277Z,11.61
2023-03-21T10:42:37.995Z,11.74
2023-03-21T10:47:39.937Z,11.87
2023-03-21T10:52:55.952Z,12.12
2023-03-21T10:58:10.912Z,12.37
2023-03-21T11:03:29.340Z,12.47
2023-03-21T11:08:37.570Z,12.46
2023-03-21T11:13:42.844Z,12.40
2023-03-21T11:18:50.650Z,12.34
2023-03-21T11:23:57.359Z,12.27
2023-03-21T11:28:59.693Z,12.21
2023-03-21T11:34:07.333Z,12.15
2023-03-21T11:39:09.008Z,12.08
2023-03-21T11:44:29.310Z,12.03
2023-03-21T11:49:31.307Z,12.02
2023-03-21T11:54:51.830Z,11.95
2023-03-21T12:00:14.365Z,11.91
2023-03-21T12:05:26.554Z,11.96
2023-03-21T12:10:46.572Z,11.92
2023-03-21T12:15:57.691Z,11.89
2023-03-21T12:21:22.333Z,11.83
2023-03-21T12:26:32.405Z,11.76
2023-03-21T12:31:43.727Z,11.73
2023-03-21T12:36:57.760Z,11.76
2023-03-21T12:42:05.612Z,11.70
2023-03-21T12:47:13.673Z,11.68
2023-03-21T12:52:22.533Z,11.73
2023-03-21T12:57:57.112Z,11.89
2023-03-21T13:03:04.164Z,12.07
2023-03-21T13:08:22.200Z,12.20
2023-03-21T13:13:45.772Z,12.39
2023-03-21T13:19:11.069Z,12.57
2023-03-21T13:24:27.289Z,12.63
2023-03-21T13:29:33.500Z,12.69
2023-03-21T13:34:38.606Z,12.75
2023-03-21T13:39:45.419Z,12.78
2023-03-21T13:44:53.115Z,12.77
2023-03-21T13:50:23.631Z,12.73
2023-03-21T13:55:28.623Z,12.74
2023-03-21T14:00:31.224Z,12.76
2023-03-21T14:05:35.285Z,12.71
2023-03-21T14:10:44.780Z,12.67
2023-03-21T14:15:56.087Z,12.65
2023-03-21T14:20:59.585Z,12.62
2023-03-21T14:26:01.499Z,12.61
2023-03-21T14:31:03.446Z,12.61
2023-03-21T14:36:16.666Z,12.57
2023-03-21T14:41:22.821Z,12.46
2023-03-21T14:46:24.672Z,12.36
2023-03-21T14:51:26.426Z,12.29
2023-03-21T14:56:28.931Z,12.21
2023-03-21T15:01:34.803Z,12.11
2023-03-21T15:06:59.065Z,12.01
2023-03-21T15:12:01.816Z,11.89
2023-03-21T15:17:06.057Z,11.76
2023-03-21T15:22:34.590Z,11.64
2023-03-21T15:27:40.936Z,11.49
2023-03-21T15:32:42.672Z,11.38
2023-03-21T15:37:53.911Z,11.35
2023-03-21T15:43:07.453Z,11.35
2023-03-21T15:48:12.775Z,11.30
2023-03-21T15:53:17.703Z,11.22
2023-03-21T15:58:25.795Z,11.17
2023-03-21T16:03:32.233Z,11.13
2023-03-21T16:08:36.436Z,11.07
2023-03-21T16:13:38.117Z,10.99
2023-03-21T16:18:39.769Z,10.95
2023-03-21T16:23:42.054Z,10.97
2023-03-21T16:28:44.835Z,10.90
2023-03-21T16:33:47.405Z,10.82
2023-03-21T16:38:52.683Z,10.73
2023-03-21T16:43:54.802Z,10.67
2023-03-21T16:48:57.755Z,10.59
2023-03-21T16:54:00.380Z,10.51
2023-03-21T16:59:02.059Z,10.38
2023-03-21T17:04:04.062Z,10.25
2023-03-21T17:09:06.779Z,10.14
2023-03-21T17:14:10.695Z,10.04
2023-03-21T17:19:24.037Z,9.96
2023-03-21T17:24:26.420Z,9.88
2023-03-21T17:29:28.353Z,9.83
2023-03-21T17:34:31.224Z,9.79
2023-03-21T17:39:33.115Z,9.69
2023-03-21T17:44:34.734Z,9.57
2023-03-21T17:49:36.584Z,9.50
2023-03-21T17:54:38.351Z,9.46
2023-03-21T17:59:40.071Z,9.50
2023-03-21T18:04:41.791Z,9.53
2023-03-21T18:09:43.637Z,9.52
2023-03-21T18:14:45.704Z,9.48
2023-03-21T18:19:47.871Z,9.43
2023-03-21T18:24:49.537Z,9.41
2023-03-21T18:30:25.957Z,9.42
2023-03-21T18:35:17.216Z,9.44
2023-03-21T18:40:22.094Z,9.41
2023-03-21T18:45:25.179Z,9.38
2023-03-21T18:50:27.439Z,9.35
2023-03-21T18:55:44.758Z,9.33
2023-03-21T19:00:47.612Z,9.34
2023-03-21T19:05:49.360Z,9.31
2023-03-21T19:10:51.469Z,9.26
2023-03-21T19:15:54.153Z,9.27
2023-03-21T19:20:58.600Z,9.22
2023-03-21T19:26:00.911Z,9.18
2023-03-21T19:31:04.499Z,9.11
2023-03-21T19:36:18.063Z,9.05
2023-03-21T19:41:23.401Z,8.97
2023-03-21T19:46:26.398Z,8.92
2023-03-21T19:51:30.038Z,8.96
2023-03-21T19:56:34.592Z,9.08
2023-03-21T20:01:36.742Z,9.12
2023-03-21T20:06:38.694Z,9.15
2023-03-21T20:11:40.381Z,9.12
2023-03-21T20:16:43.720Z,9.07
2023-03-21T20:21:52.238Z,8.95
2023-03-21T20:26:57.342Z,8.96
2023-03-21T20:31:59.638Z,9.04
2023-03-21T20:37:03.083Z,9.08
2023-03-21T20:42:05.777Z,9.06
2023-03-21T20:47:08.282Z,9.08
2023-03-21T20:57:32.604Z,9.06
2023-03-21T21:02:34.700Z,8.97
2023-03-21T21:07:36.355Z,8.87
2023-03-21T21:12:40.213Z,8.89
2023-03-21T21:23:05.007Z,8.97
2023-03-21T21:28:09.627Z,9.03
2023-03-21T21:33:14.546Z,9.07
2023-03-21T21:38:19.179Z,9.05
2023-03-21T21:43:21.147Z,8.96
2023-03-21T21:48:23.384Z,8.88
2023-03-21T21:53:28.323Z,8.82
2023-03-21T21:58:33.828Z,8.78
2023-03-21T22:03:41.172Z,8.74
2023-03-21T22:08:46.876Z,8.73
2023-03-21T22:13:53.147Z,8.68
2023-03-21T22:18:54.818Z,8.62
2023-03-21T22:23:56.626Z,8.60
2023-03-21T22:28:59.900Z,8.58
2023-03-21T22:34:01.536Z,8.55
2023-03-21T22:39:03.388Z,8.48
2023-03-21T22:44:06.297Z,8.44
2023-03-21T22:49:07.981Z,8.37
2023-03-21T22:54:10.995Z,8.27
2023-03-21T22:59:12.671Z,8.18
2023-03-21T23:04:15.590Z,8.09
2023-03-21T23:09:17.688Z,7.99
2023-03-21T23:14:20.885Z,7.89
2023-03-21T23:19:25.469Z,7.79
2023-03-21T23:24:27.309Z,7.72
2023-03-21T23:29:29.024Z,7.68
2023-03-21T23:34:31.593Z,7.65
2023-03-21T23:39:35.016Z,7.61
2023-03-21T23:44:36.721Z,7.52
2023-03-21T23:49:39.019Z,7.51
2023-03-21T23:54:40.943Z,7.59
2023-03-21T23:59:42.669Z,7.57
